sensor_id;sensor_type;location;lat;lon;timestamp;pressure;altitude;pressure_sealevel;temperature;humidity
13836;BME280;6988;52.614;13.500;2023-11-18T00:02:52;54885.84;;;-143.77;87.26
13836;BME280;6988;52.614;13.500;2023-11-18T00:07:45;54857.13;;;-143.77;87.60
13836;BME280;6988;52.614;13.500;2023-11-18T00:12:38;54848.91;;;-143.77;87.19
13836;BME280;6988;52.614;13.500;2023-11-18T00:17:31;54846.88;;;-143.77;87.01
13836;BME280;6988;52.614;13.500;2023-11-18T00:22:25;54848.91;;;-143.77;86.86
13836;BME280;6988;52.614;13.500;2023-11-18T00:27:18;54877.66;;;-143.77;87.01
13836;BME280;6988;52.614;13.500;2023-11-18T00:32:10;54824.28;;;-143.77;87.06
13836;BME280;6988;52.614;13.500;2023-11-18T00:37:03;54832.50;;;-143.77;86.99
13836;BME280;6988;52.614;13.500;2023-11-18T00:41:56;54844.81;;;-143.77;87.11
13836;BME280;6988;52.614;13.500;2023-11-18T00:46:48;54844.81;;;-143.77;87.05
13836;BME280;6988;52.614;13.500;2023-11-18T00:51:40;54850.97;;;-143.77;86.95
13836;BME280;6988;52.614;13.500;2023-11-18T00:56:32;54861.22;;;-143.77;86.88
13836;BME280;6988;52.614;13.500;2023-11-18T01:01:26;54844.81;;;-143.77;86.13
13836;BME280;6988;52.614;13.500;2023-11-18T01:06:18;54838.66;;;-143.77;86.80
13836;BME280;6988;52.614;13.500;2023-11-18T01:11:10;54877.66;;;-143.77;86.70
13836;BME280;6988;52.614;13.500;2023-11-18T01:16:04;54799.66;;;-143.77;85.91
13836;BME280;6988;52.614;13.500;2023-11-18T01:20:57;54844.81;;;-143.77;86.38
13836;BME280;6988;52.614;13.500;2023-11-18T01:25:50;54840.72;;;-143.77;86.58
13836;BME280;6988;52.614;13.500;2023-11-18T01:30:41;54844.81;;;-143.77;86.52
13836;BME280;6988;52.614;13.500;2023-11-18T01:35:35;54861.22;;;-143.77;86.39
13836;BME280;6988;52.614;13.500;2023-11-18T01:40:28;54818.13;;;-143.77;86.91
13836;BME280;6988;52.614;13.500;2023-11-18T01:45:21;54850.97;;;-143.77;86.56
13836;BME280;6988;52.614;13.500;2023-11-18T01:50:14;54818.13;;;-143.77;86.38
13836;BME280;6988;52.614;13.500;2023-11-18T01:55:08;54838.66;;;-143.77;86.28
13836;BME280;6988;52.614;13.500;2023-11-18T02:00:03;54842.75;;;-143.77;86.54
13836;BME280;6988;52.614;13.500;2023-11-18T02:05:05;54859.19;;;-143.77;86.24
13836;BME280;6988;52.614;13.500;2023-11-18T02:09:58;54844.81;;;-143.77;86.27
13836;BME280;6988;52.614;13.500;2023-11-18T02:14:51;54855.06;;;-143.77;85.69
13836;BME280;6988;52.614;13.500;2023-11-18T02:19:46;54846.88;;;-143.77;85.92
13836;BME280;6988;52.614;13.500;2023-11-18T02:24:39;54846.88;;;-143.77;85.51
13836;BME280;6988;52.614;13.500;2023-11-18T02:29:35;54867.38;;;-143.77;86.16
13836;BME280;6988;52.614;13.500;2023-11-18T02:34:32;54869.44;;;-143.77;86.37
13836;BME280;6988;52.614;13.500;2023-11-18T02:39:32;54822.25;;;-143.77;85.83
13836;BME280;6988;52.614;13.500;2023-11-18T02:44:32;54846.88;;;-143.77;85.58
13836;BME280;6988;52.614;13.500;2023-11-18T02:49:24;54832.50;;;-143.77;86.01
13836;BME280;6988;52.614;13.500;2023-11-18T02:54:17;54842.75;;;-143.77;85.54
13836;BME280;6988;52.614;13.500;2023-11-18T02:59:09;54853.03;;;-143.77;86.14
13836;BME280;6988;52.614;13.500;2023-11-18T03:04:03;54846.88;;;-143.77;85.38
13836;BME280;6988;52.614;13.500;2023-11-18T03:08:56;54853.03;;;-143.77;85.49
13836;BME280;6988;52.614;13.500;2023-11-18T03:13:48;54840.72;;;-143.77;85.60
13836;BME280;6988;52.614;13.500;2023-11-18T03:18:43;54832.50;;;-143.77;86.03
13836;BME280;6988;52.614;13.500;2023-11-18T03:23:37;54830.44;;;-143.77;86.19
13836;BME280;6988;52.614;13.500;2023-11-18T03:28:29;54861.22;;;-143.77;85.92
13836;BME280;6988;52.614;13.500;2023-11-18T03:33:21;54838.66;;;-143.77;86.16
13836;BME280;6988;52.614;13.500;2023-11-18T03:38:15;54836.59;;;-143.77;86.16
13836;BME280;6988;52.614;13.500;2023-11-18T03:43:09;54861.22;;;-143.77;86.70
13836;BME280;6988;52.614;13.500;2023-11-18T03:48:02;54881.75;;;-143.77;86.06
13836;BME280;6988;52.614;13.500;2023-11-18T03:52:53;54828.41;;;-143.77;85.79
13836;BME280;6988;52.614;13.500;2023-11-18T03:57:45;54855.06;;;-143.77;85.79
13836;BME280;6988;52.614;13.500;2023-11-18T04:02:38;54865.34;;;-143.77;86.27
13836;BME280;6988;52.614;13.500;2023-11-18T04:07:30;54869.44;;;-143.77;86.25
13836;BME280;6988;52.614;13.500;2023-11-18T04:12:22;54844.81;;;-143.77;86.08
13836;BME280;6988;52.614;13.500;2023-11-18T04:17:14;54840.72;;;-143.77;85.72
13836;BME280;6988;52.614;13.500;2023-11-18T04:22:08;54869.44;;;-143.77;85.77
13836;BME280;6988;52.614;13.500;2023-11-18T04:27:00;54840.72;;;-143.77;85.96
13836;BME280;6988;52.614;13.500;2023-11-18T04:31:53;54859.19;;;-143.77;86.00
13836;BME280;6988;52.614;13.500;2023-11-18T04:36:46;54857.13;;;-143.77;85.40
13836;BME280;6988;52.614;13.500;2023-11-18T04:41:39;54840.72;;;-143.77;85.03
13836;BME280;6988;52.614;13.500;2023-11-18T04:46:32;54844.81;;;-143.77;85.56
13836;BME280;6988;52.614;13.500;2023-11-18T04:51:24;54877.66;;;-143.77;84.84
13836;BME280;6988;52.614;13.500;2023-11-18T04:56:16;54830.44;;;-143.77;85.40
13836;BME280;6988;52.614;13.500;2023-11-18T05:01:10;54857.13;;;-143.77;85.34
13836;BME280;6988;52.614;13.500;2023-11-18T05:06:04;54857.13;;;-143.77;85.88
13836;BME280;6988;52.614;13.500;2023-11-18T05:10:56;54857.13;;;-143.77;86.27
13836;BME280;6988;52.614;13.500;2023-11-18T05:15:48;54885.84;;;-143.77;85.76
13836;BME280;6988;52.614;13.500;2023-11-18T05:20:42;54828.41;;;-143.77;85.72
13836;BME280;6988;52.614;13.500;2023-11-18T05:25:34;54865.34;;;-143.77;86.32
13836;BME280;6988;52.614;13.500;2023-11-18T05:30:26;54863.28;;;-143.77;86.79
13836;BME280;6988;52.614;13.500;2023-11-18T05:35:18;54871.50;;;-143.77;86.23
13836;BME280;6988;52.614;13.500;2023-11-18T05:40:12;54857.13;;;-143.77;86.35
13836;BME280;6988;52.614;13.500;2023-11-18T05:45:07;54855.06;;;-143.77;86.23
13836;BME280;6988;52.614;13.500;2023-11-18T05:50:08;54857.13;;;-143.77;86.42
13836;BME280;6988;52.614;13.500;2023-11-18T05:55:00;54857.13;;;-143.77;85.49
13836;BME280;6988;52.614;13.500;2023-11-18T05:59:54;54853.03;;;-143.77;85.20
13836;BME280;6988;52.614;13.500;2023-11-18T06:04:46;54824.28;;;-143.77;85.68
13836;BME280;6988;52.614;13.500;2023-11-18T06:09:40;54863.28;;;-143.77;85.13
13836;BME280;6988;52.614;13.500;2023-11-18T06:14:32;54885.84;;;-143.77;85.12
13836;BME280;6988;52.614;13.500;2023-11-18T06:19:25;54865.34;;;-143.77;85.25
13836;BME280;6988;52.614;13.500;2023-11-18T06:24:17;54883.81;;;-143.77;85.27
13836;BME280;6988;52.614;13.500;2023-11-18T06:29:09;54877.66;;;-143.77;85.68
13836;BME280;6988;52.614;13.500;2023-11-18T06:34:02;54853.03;;;-143.77;85.28
13836;BME280;6988;52.614;13.500;2023-11-18T06:38:56;54857.13;;;-143.77;85.96
13836;BME280;6988;52.614;13.500;2023-11-18T06:43:50;54877.66;;;-143.77;86.23
13836;BME280;6988;52.614;13.500;2023-11-18T06:48:52;54861.22;;;-143.77;85.81
13836;BME280;6988;52.614;13.500;2023-11-18T06:53:44;54857.13;;;-143.77;85.31
13836;BME280;6988;52.614;13.500;2023-11-18T06:58:38;54869.44;;;-143.77;85.98
13836;BME280;6988;52.614;13.500;2023-11-18T07:03:31;54885.84;;;-143.77;85.68
13836;BME280;6988;52.614;13.500;2023-11-18T07:08:23;54871.50;;;-143.77;86.13
13836;BME280;6988;52.614;13.500;2023-11-18T07:13:15;54877.66;;;-143.77;85.61
13836;BME280;6988;52.614;13.500;2023-11-18T07:18:08;54887.91;;;-143.77;85.57
13836;BME280;6988;52.614;13.500;2023-11-18T07:23:00;54857.13;;;-143.77;86.29
13836;BME280;6988;52.614;13.500;2023-11-18T07:27:53;54887.91;;;-143.77;86.25
13836;BME280;6988;52.614;13.500;2023-11-18T07:32:46;54855.06;;;-143.77;85.97
13836;BME280;6988;52.614;13.500;2023-11-18T07:37:39;54881.75;;;-143.77;86.47
13836;BME280;6988;52.614;13.500;2023-11-18T07:42:31;54855.06;;;-143.77;86.03
13836;BME280;6988;52.614;13.500;2023-11-18T07:47:25;54846.88;;;-143.77;86.57
13836;BME280;6988;52.614;13.500;2023-11-18T07:52:18;54896.13;;;-143.77;86.63
13836;BME280;6988;52.614;13.500;2023-11-18T07:57:12;54871.50;;;-143.77;85.71
13836;BME280;6988;52.614;13.500;2023-11-18T08:02:05;54844.81;;;-143.77;85.75
13836;BME280;6988;52.614;13.500;2023-11-18T08:06:59;54861.22;;;-143.77;85.44
13836;BME280;6988;52.614;13.500;2023-11-18T08:11:51;54828.41;;;-143.77;85.73
13836;BME280;6988;52.614;13.500;2023-11-18T08:16:47;54828.41;;;-143.77;85.88
13836;BME280;6988;52.614;13.500;2023-11-18T08:21:40;54814.03;;;-143.77;85.53
13836;BME280;6988;52.614;13.500;2023-11-18T08:26:32;54867.38;;;-143.77;85.52
13836;BME280;6988;52.614;13.500;2023-11-18T08:31:24;54861.22;;;-143.77;85.41
13836;BME280;6988;52.614;13.500;2023-11-18T08:36:17;54836.59;;;-143.77;84.63
13836;BME280;6988;52.614;13.500;2023-11-18T08:41:09;54869.44;;;-143.77;84.39
13836;BME280;6988;52.614;13.500;2023-11-18T08:46:02;54832.50;;;-143.77;84.45
13836;BME280;6988;52.614;13.500;2023-11-18T08:50:54;54832.50;;;-143.77;84.44
13836;BME280;6988;52.614;13.500;2023-11-18T08:55:47;54853.03;;;-143.77;83.64
13836;BME280;6988;52.614;13.500;2023-11-18T09:00:46;54809.94;;;-143.77;83.42
13836;BME280;6988;52.614;13.500;2023-11-18T09:05:38;54830.44;;;-143.77;83.88
13836;BME280;6988;52.614;13.500;2023-11-18T09:10:32;54805.81;;;-143.77;82.92
13836;BME280;6988;52.614;13.500;2023-11-18T09:15:26;54818.13;;;-143.77;82.40
13836;BME280;6988;52.614;13.500;2023-11-18T09:20:21;54799.66;;;-143.77;80.86
13836;BME280;6988;52.614;13.500;2023-11-18T09:25:13;54803.78;;;-143.77;80.88
13836;BME280;6988;52.614;13.500;2023-11-18T09:30:09;54787.34;;;-143.77;79.36
13836;BME280;6988;52.614;13.500;2023-11-18T09:35:06;54768.88;;;-143.77;78.60
13836;BME280;6988;52.614;13.500;2023-11-18T09:40:00;54828.41;;;-143.77;77.24
13836;BME280;6988;52.614;13.500;2023-11-18T09:45:03;54809.94;;;-143.77;78.59
13836;BME280;6988;52.614;13.500;2023-11-18T09:49:58;54742.22;;;-143.77;77.74
13836;BME280;6988;52.614;13.500;2023-11-18T09:55:02;54783.25;;;-143.77;76.74
13836;BME280;6988;52.614;13.500;2023-11-18T10:00:01;54809.94;;;-143.77;75.69
13836;BME280;6988;52.614;13.500;2023-11-18T10:05:03;54793.50;;;-143.77;76.04
13836;BME280;6988;52.614;13.500;2023-11-18T10:10:06;54783.25;;;-143.77;76.52
13836;BME280;6988;52.614;13.500;2023-11-18T10:15:08;54787.34;;;-143.77;75.36
13836;BME280;6988;52.614;13.500;2023-11-18T10:20:03;54781.19;;;-143.77;75.37
13836;BME280;6988;52.614;13.500;2023-11-18T10:25:05;54816.09;;;-143.77;75.33
13836;BME280;6988;52.614;13.500;2023-11-18T10:29:58;54799.66;;;-143.77;76.08
13836;BME280;6988;52.614;13.500;2023-11-18T10:34:55;54799.66;;;-143.77;76.07
13836;BME280;6988;52.614;13.500;2023-11-18T10:39:48;54807.88;;;-143.77;75.95
13836;BME280;6988;52.614;13.500;2023-11-18T10:44:55;54764.78;;;-143.77;76.19
13836;BME280;6988;52.614;13.500;2023-11-18T10:49:50;54762.72;;;-143.77;76.37
13836;BME280;6988;52.614;13.500;2023-11-18T10:54:50;54768.88;;;-143.77;76.55
13836;BME280;6988;52.614;13.500;2023-11-18T11:00:00;54787.34;;;-143.77;76.35
13836;BME280;6988;52.614;13.500;2023-11-18T11:04:53;54787.34;;;-143.77;76.78
13836;BME280;6988;52.614;13.500;2023-11-18T11:09:45;54797.63;;;-143.77;76.25
13836;BME280;6988;52.614;13.500;2023-11-18T11:14:46;54820.19;;;-143.77;76.17
13836;BME280;6988;52.614;13.500;2023-11-18T11:19:52;54781.19;;;-143.77;74.54
13836;BME280;6988;52.614;13.500;2023-11-18T11:25:02;54799.66;;;-143.77;74.54
13836;BME280;6988;52.614;13.500;2023-11-18T11:30:08;54816.09;;;-143.77;74.42
13836;BME280;6988;52.614;13.500;2023-11-18T11:35:12;54791.47;;;-143.77;73.63
13836;BME280;6988;52.614;13.500;2023-11-18T11:40:11;54779.16;;;-143.77;72.41
13836;BME280;6988;52.614;13.500;2023-11-18T11:45:12;54785.31;;;-143.77;71.93
13836;BME280;6988;52.614;13.500;2023-11-18T11:50:25;54795.56;;;-143.77;72.64
13836;BME280;6988;52.614;13.500;2023-11-18T11:55:33;54795.56;;;-143.77;72.62
13836;BME280;6988;52.614;13.500;2023-11-18T12:00:27;54787.34;;;-143.77;71.21
13836;BME280;6988;52.614;13.500;2023-11-18T12:05:26;54734.00;;;-143.77;70.94
13836;BME280;6988;52.614;13.500;2023-11-18T12:10:18;54783.25;;;-143.77;71.26
13836;BME280;6988;52.614;13.500;2023-11-18T12:15:12;54824.28;;;-143.77;71.68
13836;BME280;6988;52.614;13.500;2023-11-18T12:20:40;54787.34;;;-143.77;72.37
13836;BME280;6988;52.614;13.500;2023-11-18T12:25:35;54715.53;;;-143.77;72.15
13836;BME280;6988;52.614;13.500;2023-11-18T12:30:38;54746.31;;;-143.77;71.41
13836;BME280;6988;52.614;13.500;2023-11-18T12:41:09;54762.72;;;-143.77;72.01
13836;BME280;6988;52.614;13.500;2023-11-18T12:46:48;54725.78;;;-143.77;72.10
13836;BME280;6988;52.614;13.500;2023-11-18T12:51:44;54721.69;;;-143.77;71.73
13836;BME280;6988;52.614;13.500;2023-11-18T12:56:36;54707.31;;;-143.77;69.56
13836;BME280;6988;52.614;13.500;2023-11-18T13:01:29;54731.94;;;-143.77;69.56
13836;BME280;6988;52.614;13.500;2023-11-18T13:06:24;54668.34;;;-143.77;69.07
13836;BME280;6988;52.614;13.500;2023-11-18T13:11:21;54695.00;;;-143.77;68.58
13836;BME280;6988;52.614;13.500;2023-11-18T13:16:15;54647.81;;;-143.77;68.05
13836;BME280;6988;52.614;13.500;2023-11-18T13:21:06;54703.22;;;-143.77;68.52
13836;BME280;6988;52.614;13.500;2023-11-18T13:26:01;54688.84;;;-143.77;66.58
13836;BME280;6988;52.614;13.500;2023-11-18T13:30:57;54766.84;;;-143.77;66.88
13836;BME280;6988;52.614;13.500;2023-11-18T13:35:49;54758.63;;;-143.77;68.14
13836;BME280;6988;52.614;13.500;2023-11-18T13:40:44;54760.69;;;-143.77;69.23
13836;BME280;6988;52.614;13.500;2023-11-18T13:45:37;54748.38;;;-143.77;70.25
13836;BME280;6988;52.614;13.500;2023-11-18T13:50:34;54768.88;;;-143.77;70.28
13836;BME280;6988;52.614;13.500;2023-11-18T13:55:26;54791.47;;;-143.77;70.29
13836;BME280;6988;52.614;13.500;2023-11-18T14:00:18;54799.66;;;-143.77;70.75
13836;BME280;6988;52.614;13.500;2023-11-18T14:05:18;54805.81;;;-143.77;71.27
13836;BME280;6988;52.614;13.500;2023-11-18T14:10:13;54807.88;;;-143.77;72.03
13836;BME280;6988;52.614;13.500;2023-11-18T14:15:07;54805.81;;;-143.77;72.17
13836;BME280;6988;52.614;13.500;2023-11-18T14:20:00;54838.66;;;-143.77;72.39
13836;BME280;6988;52.614;13.500;2023-11-18T14:24:52;54811.97;;;-143.77;72.64
13836;BME280;6988;52.614;13.500;2023-11-18T14:29:45;54842.75;;;-143.77;72.92
13836;BME280;6988;52.614;13.500;2023-11-18T14:34:37;54842.75;;;-143.77;73.60
13836;BME280;6988;52.614;13.500;2023-11-18T14:39:29;54828.41;;;-143.77;74.08
13836;BME280;6988;52.614;13.500;2023-11-18T14:44:20;54830.44;;;-143.77;73.73
13836;BME280;6988;52.614;13.500;2023-11-18T14:49:14;54840.72;;;-143.77;74.46
13836;BME280;6988;52.614;13.500;2023-11-18T14:54:06;54855.06;;;-143.77;74.58
13836;BME280;6988;52.614;13.500;2023-11-18T14:58:59;54877.66;;;-143.77;73.90
13836;BME280;6988;52.614;13.500;2023-11-18T15:03:50;54840.72;;;-143.77;74.13
13836;BME280;6988;52.614;13.500;2023-11-18T15:08:44;54869.44;;;-143.77;74.91
13836;BME280;6988;52.614;13.500;2023-11-18T15:13:35;54873.53;;;-143.77;75.35
13836;BME280;6988;52.614;13.500;2023-11-18T15:18:28;54881.75;;;-143.77;76.03
13836;BME280;6988;52.614;13.500;2023-11-18T15:23:19;54881.75;;;-143.77;76.41
13836;BME280;6988;52.614;13.500;2023-11-18T15:28:13;54906.38;;;-143.77;76.93
13836;BME280;6988;52.614;13.500;2023-11-18T15:33:06;54857.13;;;-143.77;77.78
13836;BME280;6988;52.614;13.500;2023-11-18T15:37:59;54928.94;;;-143.77;77.51
13836;BME280;6988;52.614;13.500;2023-11-18T15:42:51;54861.22;;;-143.77;78.59
13836;BME280;6988;52.614;13.500;2023-11-18T15:47:45;54871.50;;;-143.77;79.02
13836;BME280;6988;52.614;13.500;2023-11-18T15:52:38;54881.75;;;-143.77;79.31
13836;BME280;6988;52.614;13.500;2023-11-18T15:57:30;54889.97;;;-143.77;79.14
13836;BME280;6988;52.614;13.500;2023-11-18T16:02:23;54881.75;;;-143.77;80.08
13836;BME280;6988;52.614;13.500;2023-11-18T16:07:16;54894.06;;;-143.77;80.14
13836;BME280;6988;52.614;13.500;2023-11-18T16:12:08;54926.91;;;-143.77;80.90
13836;BME280;6988;52.614;13.500;2023-11-18T16:17:00;54846.88;;;-143.77;81.02
13836;BME280;6988;52.614;13.500;2023-11-18T16:21:51;54881.75;;;-143.77;81.70
13836;BME280;6988;52.614;13.500;2023-11-18T16:26:45;54879.69;;;-143.77;81.66
13836;BME280;6988;52.614;13.500;2023-11-18T16:31:38;54875.59;;;-143.77;81.96
13836;BME280;6988;52.614;13.500;2023-11-18T16:36:30;54867.38;;;-143.77;80.61
13836;BME280;6988;52.614;13.500;2023-11-18T16:41:22;54885.84;;;-143.77;80.31
13836;BME280;6988;52.614;13.500;2023-11-18T16:46:15;54920.75;;;-143.77;80.38
13836;BME280;6988;52.614;13.500;2023-11-18T16:51:07;54859.19;;;-143.77;80.52
13836;BME280;6988;52.614;13.500;2023-11-18T16:55:58;54863.28;;;-143.77;81.28
13836;BME280;6988;52.614;13.500;2023-11-18T17:00:50;54924.84;;;-143.77;81.53
13836;BME280;6988;52.614;13.500;2023-11-18T17:05:44;54926.91;;;-143.77;81.50
13836;BME280;6988;52.614;13.500;2023-11-18T17:10:36;54894.06;;;-143.77;81.44
13836;BME280;6988;52.614;13.500;2023-11-18T17:15:28;54908.44;;;-143.77;82.40
13836;BME280;6988;52.614;13.500;2023-11-18T17:20:20;54902.28;;;-143.77;82.48
13836;BME280;6988;52.614;13.500;2023-11-18T17:25:17;54896.13;;;-143.77;83.59
13836;BME280;6988;52.614;13.500;2023-11-18T17:30:11;54871.50;;;-143.77;83.41
13836;BME280;6988;52.614;13.500;2023-11-18T17:35:04;54912.53;;;-143.77;83.21
13836;BME280;6988;52.614;13.500;2023-11-18T17:39:56;54928.94;;;-143.77;83.48
13836;BME280;6988;52.614;13.500;2023-11-18T17:44:51;54906.38;;;-143.77;84.04
13836;BME280;6988;52.614;13.500;2023-11-18T17:49:43;54887.91;;;-143.77;84.87
13836;BME280;6988;52.614;13.500;2023-11-18T17:54:35;54902.28;;;-143.77;84.57
13836;BME280;6988;52.614;13.500;2023-11-18T17:59:27;54935.09;;;-143.77;84.23
13836;BME280;6988;52.614;13.500;2023-11-18T18:04:21;54980.25;;;-143.77;84.31
13836;BME280;6988;52.614;13.500;2023-11-18T18:09:12;54935.09;;;-143.77;84.50
13836;BME280;6988;52.614;13.500;2023-11-18T18:14:06;54947.41;;;-143.77;84.44
13836;BME280;6988;52.614;13.500;2023-11-18T18:18:59;54924.84;;;-143.77;84.44
13836;BME280;6988;52.614;13.500;2023-11-18T18:23:53;54904.31;;;-143.77;84.25
13836;BME280;6988;52.614;13.500;2023-11-18T18:28:46;54894.06;;;-143.77;83.78
13836;BME280;6988;52.614;13.500;2023-11-18T18:33:38;54949.47;;;-143.77;84.18
13836;BME280;6988;52.614;13.500;2023-11-18T18:38:30;54955.63;;;-143.77;84.62
13836;BME280;6988;52.614;13.500;2023-11-18T18:43:23;54951.53;;;-143.77;85.06
13836;BME280;6988;52.614;13.500;2023-11-18T18:48:16;54945.38;;;-143.77;85.37
13836;BME280;6988;52.614;13.500;2023-11-18T18:53:08;54931.00;;;-143.77;85.09
13836;BME280;6988;52.614;13.500;2023-11-18T18:58:00;54957.69;;;-143.77;85.24
13836;BME280;6988;52.614;13.500;2023-11-18T19:02:54;54972.03;;;-143.77;85.23
13836;BME280;6988;52.614;13.500;2023-11-18T19:07:45;54926.91;;;-143.77;84.06
13836;BME280;6988;52.614;13.500;2023-11-18T19:12:37;54931.00;;;-143.77;84.32
13836;BME280;6988;52.614;13.500;2023-11-18T19:17:29;54926.91;;;-143.77;84.29
13836;BME280;6988;52.614;13.500;2023-11-18T19:22:23;54912.53;;;-143.77;84.20
13836;BME280;6988;52.614;13.500;2023-11-18T19:27:15;54906.38;;;-143.77;82.80
13836;BME280;6988;52.614;13.500;2023-11-18T19:32:07;54894.06;;;-143.77;82.59
13836;BME280;6988;52.614;13.500;2023-11-18T19:36:59;54914.59;;;-143.77;82.75
13836;BME280;6988;52.614;13.500;2023-11-18T19:41:52;54889.97;;;-143.77;81.96
13836;BME280;6988;52.614;13.500;2023-11-18T19:46:44;54898.16;;;-143.77;81.82
13836;BME280;6988;52.614;13.500;2023-11-18T19:51:40;54957.69;;;-143.77;82.22
13836;BME280;6988;52.614;13.500;2023-11-18T19:56:32;54885.84;;;-143.77;82.39
13836;BME280;6988;52.614;13.500;2023-11-18T20:01:25;54902.28;;;-143.77;82.71
13836;BME280;6988;52.614;13.500;2023-11-18T20:06:19;54928.94;;;-143.77;81.75
13836;BME280;6988;52.614;13.500;2023-11-18T20:11:10;54906.38;;;-143.77;80.97
13836;BME280;6988;52.614;13.500;2023-11-18T20:16:03;54881.75;;;-143.77;80.99
13836;BME280;6988;52.614;13.500;2023-11-18T20:20:58;54894.06;;;-143.77;80.94
13836;BME280;6988;52.614;13.500;2023-11-18T20:25:50;54902.28;;;-143.77;80.73
13836;BME280;6988;52.614;13.500;2023-11-18T20:30:42;54914.59;;;-143.77;80.53
13836;BME280;6988;52.614;13.500;2023-11-18T20:35:34;54902.28;;;-143.77;80.39
13836;BME280;6988;52.614;13.500;2023-11-18T20:40:27;54898.16;;;-143.77;80.93
13836;BME280;6988;52.614;13.500;2023-11-18T20:45:20;54939.22;;;-143.77;81.32
13836;BME280;6988;52.614;13.500;2023-11-18T20:50:12;54918.69;;;-143.77;81.92
13836;BME280;6988;52.614;13.500;2023-11-18T20:55:06;54906.38;;;-143.77;82.76
13836;BME280;6988;52.614;13.500;2023-11-18T21:00:01;54914.59;;;-143.77;82.27
13836;BME280;6988;52.614;13.500;2023-11-18T21:04:56;54914.59;;;-143.77;82.25
13836;BME280;6988;52.614;13.500;2023-11-18T21:09:48;54920.75;;;-143.77;82.10
13836;BME280;6988;52.614;13.500;2023-11-18T21:14:40;54865.34;;;-143.77;82.06
13836;BME280;6988;52.614;13.500;2023-11-18T21:19:33;54922.78;;;-143.77;82.01
13836;BME280;6988;52.614;13.500;2023-11-18T21:24:24;54914.59;;;-143.77;81.33
13836;BME280;6988;52.614;13.500;2023-11-18T21:29:16;54857.13;;;-143.77;81.61
13836;BME280;6988;52.614;13.500;2023-11-18T21:34:09;54914.59;;;-143.77;81.38
13836;BME280;6988;52.614;13.500;2023-11-18T21:39:04;54898.16;;;-143.77;81.24
13836;BME280;6988;52.614;13.500;2023-11-18T21:43:56;54904.31;;;-143.77;81.11
13836;BME280;6988;52.614;13.500;2023-11-18T21:48:48;54918.69;;;-143.77;80.35
13836;BME280;6988;52.614;13.500;2023-11-18T21:53:40;54892.00;;;-143.77;80.60
13836;BME280;6988;52.614;13.500;2023-11-18T21:58:34;54898.16;;;-143.77;80.93
13836;BME280;6988;52.614;13.500;2023-11-18T22:03:27;54898.16;;;-143.77;81.09
13836;BME280;6988;52.614;13.500;2023-11-18T22:08:19;54894.06;;;-143.77;81.74
13836;BME280;6988;52.614;13.500;2023-11-18T22:13:12;54894.06;;;-143.77;81.79
13836;BME280;6988;52.614;13.500;2023-11-18T22:18:05;54924.84;;;-143.77;82.24
13836;BME280;6988;52.614;13.500;2023-11-18T22:22:59;54926.91;;;-143.77;82.28
13836;BME280;6988;52.614;13.500;2023-11-18T22:27:51;54898.16;;;-143.77;82.36
13836;BME280;6988;52.614;13.500;2023-11-18T22:32:42;54896.13;;;-143.77;82.71
13836;BME280;6988;52.614;13.500;2023-11-18T22:37:35;54912.53;;;-143.77;82.38
13836;BME280;6988;52.614;13.500;2023-11-18T22:42:27;54912.53;;;-143.77;80.95
13836;BME280;6988;52.614;13.500;2023-11-18T23:04:34;54900.22;;;-143.77;81.92
13836;BME280;6988;52.614;13.500;2023-11-18T23:09:26;54918.69;;;-143.77;82.05
13836;BME280;6988;52.614;13.500;2023-11-18T23:14:19;54910.47;;;-143.77;82.01
13836;BME280;6988;52.614;13.500;2023-11-18T23:19:11;54931.00;;;-143.77;82.60
13836;BME280;6988;52.614;13.500;2023-11-18T23:24:05;54908.44;;;-143.77;82.69
13836;BME280;6988;52.614;13.500;2023-11-18T23:28:59;54914.59;;;-143.77;82.69
13836;BME280;6988;52.614;13.500;2023-11-18T23:33:56;54920.75;;;-143.77;82.21
13836;BME280;6988;52.614;13.500;2023-11-18T23:38:48;54908.44;;;-143.77;82.35
13836;BME280;6988;52.614;13.500;2023-11-18T23:43:42;54931.00;;;-143.77;82.52
13836;BME280;6988;52.614;13.500;2023-11-18T23:48:35;54910.47;;;-143.77;82.96
13836;BME280;6988;52.614;13.500;2023-11-18T23:53:27;54906.38;;;-143.77;83.56
13836;BME280;6988;52.614;13.500;2023-11-18T23:58:19;54920.75;;;-143.77;83.39
